createdAt,value
2023-03-31T00:01:26.465Z,6.36
2023-03-31T00:04:03.789Z,6.37
2023-03-31T00:06:41.877Z,6.38
2023-03-31T00:09:22.175Z,6.38
2023-03-31T00:11:51.481Z,6.39
2023-03-31T00:14:20.370Z,6.42
2023-03-31T00:16:48.658Z,6.44
2023-03-31T00:19:20.819Z,6.47
2023-03-31T00:21:49.217Z,6.48
2023-03-31T00:24:17.761Z,6.48
2023-03-31T00:26:47.931Z,6.50
2023-03-31T00:29:16.553Z,6.51
2023-03-31T00:31:44.727Z,6.51
2023-03-31T00:34:12.899Z,6.53
2023-03-31T00:36:47.721Z,6.54
2023-03-31T00:39:19.630Z,6.55
2023-03-31T00:41:48.160Z,6.58
2023-03-31T00:44:27.783Z,6.60
2023-03-31T00:47:08.125Z,6.61
2023-03-31T00:49:47.405Z,6.61
2023-03-31T00:52:21.602Z,6.62
2023-03-31T00:54:51.787Z,6.63
2023-03-31T00:57:19.962Z,6.62
2023-03-31T00:59:50.941Z,6.63
2023-03-31T01:02:21.163Z,6.65
2023-03-31T01:04:54.916Z,6.67
2023-03-31T01:07:43.588Z,6.67
2023-03-31T01:10:12.326Z,6.68
2023-03-31T01:12:41.958Z,6.66
2023-03-31T01:15:10.693Z,6.64
2023-03-31T01:17:41.162Z,6.63
2023-03-31T01:20:12.582Z,6.62
2023-03-31T01:22:49.626Z,6.61
2023-03-31T01:25:17.620Z,6.59
2023-03-31T01:27:58.765Z,6.56
2023-03-31T01:31:25.841Z,6.30
2023-03-31T01:34:15.689Z,6.51
2023-03-31T01:36:47.407Z,6.50
2023-03-31T01:39:41.042Z,6.46
2023-03-31T01:42:19.008Z,6.43
2023-03-31T01:45:12.493Z,6.41
2023-03-31T01:48:13.089Z,6.45
2023-03-31T01:50:58.122Z,6.47
2023-03-31T01:53:28.897Z,6.46
2023-03-31T01:56:25.208Z,6.44
2023-03-31T01:59:02.564Z,6.42
2023-03-31T02:01:38.113Z,6.42
2023-03-31T02:04:18.797Z,6.42
2023-03-31T02:06:53.016Z,6.41
2023-03-31T02:09:23.828Z,6.42
2023-03-31T02:11:51.971Z,6.41
2023-03-31T02:14:22.749Z,6.39
2023-03-31T02:17:08.385Z,6.38
2023-03-31T02:19:40.236Z,6.36
2023-03-31T02:22:08.497Z,6.34
2023-03-31T02:24:37.062Z,6.35
2023-03-31T02:27:28.314Z,6.34
2023-03-31T02:29:56.923Z,6.31
2023-03-31T02:32:29.358Z,6.28
2023-03-31T02:34:58.186Z,6.26
2023-03-31T02:37:26.433Z,6.24
2023-03-31T02:39:59.076Z,6.23
2023-03-31T02:42:27.558Z,6.21
2023-03-31T02:45:04.778Z,6.21
2023-03-31T02:47:33.366Z,6.21
2023-03-31T02:50:02.009Z,6.20
2023-03-31T02:52:38.871Z,6.21
2023-03-31T02:55:43.805Z,6.19
2023-03-31T02:58:22.140Z,6.16
2023-03-31T03:00:57.517Z,6.13
2023-03-31T03:03:54.656Z,6.12
2023-03-31T03:06:45.431Z,6.11
2023-03-31T03:09:37.421Z,6.08
2023-03-31T03:12:31.651Z,6.05
2023-03-31T03:15:06.086Z,6.01
2023-03-31T03:17:43.782Z,5.98
2023-03-31T03:20:12.064Z,5.97
2023-03-31T03:22:40.759Z,5.97
2023-03-31T03:25:11.736Z,5.97
2023-03-31T03:27:40.736Z,5.97
2023-03-31T03:30:12.779Z,5.94
2023-03-31T03:32:43.264Z,5.92
2023-03-31T03:35:11.465Z,5.91
2023-03-31T03:37:39.646Z,5.89
2023-03-31T03:40:08.864Z,5.89
2023-03-31T03:42:38.429Z,5.90
2023-03-31T03:45:12.288Z,5.91
2023-03-31T03:47:41.008Z,5.92
2023-03-31T03:50:10.246Z,5.94
2023-03-31T03:52:39.286Z,5.94
2023-03-31T03:55:08.234Z,5.94
2023-03-31T03:57:37.316Z,5.92
2023-03-31T04:00:12.660Z,5.90
2023-03-31T04:02:42.427Z,5.90
2023-03-31T04:05:10.889Z,5.90
2023-03-31T04:07:39.435Z,5.90
2023-03-31T04:10:09.043Z,5.90
2023-03-31T04:12:39.428Z,5.88
2023-03-31T04:15:07.864Z,5.88
2023-03-31T04:17:41.057Z,5.88
2023-03-31T04:20:10.245Z,5.87
2023-03-31T04:22:41.640Z,5.88
2023-03-31T04:25:16.469Z,5.89
2023-03-31T04:27:55.368Z,5.88
2023-03-31T04:30:31.192Z,5.87
2023-03-31T04:33:02.731Z,5.87
2023-03-31T04:35:50.396Z,5.87
2023-03-31T04:38:21.592Z,5.89
2023-03-31T04:40:51.167Z,5.89
2023-03-31T04:43:20.462Z,5.89
2023-03-31T04:45:48.486Z,5.90
2023-03-31T04:48:19.401Z,5.91
2023-03-31T04:50:48.852Z,5.88
2023-03-31T04:53:17.086Z,5.86
2023-03-31T04:55:46.282Z,5.86
2023-03-31T04:58:14.415Z,5.87
2023-03-31T05:00:44.134Z,5.88
2023-03-31T05:03:12.793Z,5.88
2023-03-31T05:05:40.859Z,5.88
2023-03-31T05:08:09.134Z,5.89
2023-03-31T05:10:46.805Z,5.88
2023-03-31T05:13:16.589Z,5.88
2023-03-31T05:15:45.511Z,5.90
2023-03-31T05:18:13.814Z,5.93
2023-03-31T05:20:42.274Z,5.96
2023-03-31T05:23:11.710Z,5.98
2023-03-31T05:25:42.418Z,6.01
2023-03-31T05:28:11.530Z,6.06
2023-03-31T05:30:42.209Z,6.08
2023-03-31T05:33:10.910Z,6.10
2023-03-31T05:35:39.311Z,6.11
2023-03-31T05:38:08.105Z,6.13
2023-03-31T05:40:37.543Z,6.15
2023-03-31T05:43:05.478Z,6.17
2023-03-31T05:45:34.806Z,6.20
2023-03-31T05:48:04.249Z,6.25
2023-03-31T05:50:32.613Z,6.28
2023-03-31T05:53:00.837Z,6.34
2023-03-31T05:55:33.503Z,6.41
2023-03-31T05:58:01.995Z,6.47
2023-03-31T06:00:29.974Z,6.53
2023-03-31T06:03:10.109Z,6.60
2023-03-31T06:05:39.498Z,6.66
2023-03-31T06:08:07.745Z,6.73
2023-03-31T06:10:38.512Z,6.81
2023-03-31T06:13:06.452Z,6.89
2023-03-31T06:15:40.841Z,6.98
2023-03-31T06:18:11.333Z,7.05
2023-03-31T06:20:39.450Z,7.14
2023-03-31T06:23:07.850Z,7.25
2023-03-31T06:25:50.402Z,7.33
2023-03-31T06:28:20.294Z,7.40
2023-03-31T06:30:48.294Z,7.46
2023-03-31T06:33:17.310Z,7.50
2023-03-31T06:35:45.523Z,7.56
2023-03-31T06:38:14.471Z,7.62
2023-03-31T06:40:42.631Z,7.67
2023-03-31T06:43:10.890Z,7.73
2023-03-31T06:45:39.096Z,7.83
2023-03-31T06:48:07.664Z,7.95
2023-03-31T06:50:38.674Z,8.09
2023-03-31T06:53:06.974Z,8.25
2023-03-31T06:55:35.637Z,8.38
2023-03-31T06:58:04.629Z,8.51
2023-03-31T07:00:32.845Z,8.57
2023-03-31T07:03:25.300Z,8.63
2023-03-31T07:05:54.582Z,8.66
2023-03-31T07:08:24.051Z,8.75
2023-03-31T07:10:57.984Z,8.89
2023-03-31T07:13:26.402Z,9.03
2023-03-31T07:15:54.649Z,9.16
2023-03-31T07:18:26.302Z,9.28
2023-03-31T07:20:54.666Z,9.40
2023-03-31T07:23:23.059Z,9.52
2023-03-31T07:25:53.275Z,9.67
2023-03-31T07:28:21.717Z,9.84
2023-03-31T07:30:49.737Z,10.02
2023-03-31T07:33:20.883Z,10.21
2023-03-31T07:35:59.939Z,10.33
2023-03-31T07:38:36.667Z,10.43
2023-03-31T07:41:09.215Z,10.37
2023-03-31T07:43:38.414Z,10.35
2023-03-31T07:46:08.510Z,10.38
2023-03-31T07:48:36.829Z,10.43
2023-03-31T07:51:06.753Z,10.48
2023-03-31T07:53:37.523Z,10.59
2023-03-31T07:56:09.871Z,10.64
2023-03-31T07:58:39.733Z,10.70
2023-03-31T08:01:10.190Z,10.68
2023-03-31T08:03:39.346Z,10.62
2023-03-31T08:06:07.753Z,10.62
2023-03-31T08:08:38.391Z,10.62
2023-03-31T08:11:07.829Z,10.57
2023-03-31T08:13:38.889Z,10.46
2023-03-31T08:16:07.011Z,10.30
2023-03-31T08:18:35.808Z,10.16
2023-03-31T08:21:04.083Z,10.06
2023-03-31T08:23:32.501Z,9.95
2023-03-31T08:26:17.697Z,9.84
2023-03-31T08:28:48.737Z,9.80
2023-03-31T08:31:18.794Z,9.79
2023-03-31T08:33:47.156Z,9.83
2023-03-31T08:36:15.150Z,9.85
2023-03-31T08:38:48.044Z,9.88
2023-03-31T08:41:34.394Z,9.95
2023-03-31T08:44:05.768Z,10.02
2023-03-31T08:46:35.700Z,10.09
2023-03-31T08:49:04.867Z,10.16
2023-03-31T08:51:35.645Z,10.19
2023-03-31T08:54:08.126Z,10.24
2023-03-31T08:56:39.301Z,10.31
2023-03-31T08:59:13.178Z,10.40
2023-03-31T09:02:07.693Z,10.46
2023-03-31T09:04:55.094Z,10.50
2023-03-31T09:07:40.536Z,10.59
2023-03-31T09:10:12.736Z,10.66
2023-03-31T09:13:07.734Z,10.73
2023-03-31T09:15:53.467Z,10.75
2023-03-31T09:18:32.453Z,10.69
2023-03-31T09:21:15.791Z,10.69
2023-03-31T09:24:26.033Z,10.79
2023-03-31T09:27:01.435Z,10.91
2023-03-31T09:29:47.760Z,11.01
2023-03-31T09:32:18.596Z,11.13
2023-03-31T09:34:47.872Z,11.18
2023-03-31T09:37:15.860Z,11.21
2023-03-31T09:39:44.818Z,11.26
2023-03-31T09:42:13.552Z,11.30
2023-03-31T09:44:43.638Z,11.38
2023-03-31T09:47:39.140Z,11.45
2023-03-31T09:50:07.880Z,11.49
2023-03-31T09:52:41.677Z,11.51
2023-03-31T09:55:39.002Z,11.52
2023-03-31T09:58:08.168Z,11.51
2023-03-31T10:00:37.573Z,11.57
2023-03-31T10:03:09.024Z,11.66
2023-03-31T10:05:50.092Z,11.78
2023-03-31T10:08:28.033Z,11.86
2023-03-31T10:11:03.175Z,11.94
2023-03-31T10:13:45.589Z,11.99
2023-03-31T10:16:24.573Z,12.03
2023-03-31T10:18:52.869Z,12.09
2023-03-31T10:21:27.236Z,12.12
2023-03-31T10:23:56.292Z,12.13
2023-03-31T10:26:28.687Z,12.14
2023-03-31T10:28:57.763Z,12.13
2023-03-31T10:31:27.286Z,12.08
2023-03-31T10:33:55.394Z,12.03
2023-03-31T10:36:27.637Z,11.95
2023-03-31T10:38:56.003Z,11.85
2023-03-31T10:41:28.625Z,11.78
2023-03-31T10:43:58.276Z,11.77
2023-03-31T10:46:47.553Z,11.85
2023-03-31T10:49:22.269Z,11.93
2023-03-31T10:51:57.851Z,11.94
2023-03-31T10:54:26.736Z,11.97
2023-03-31T10:56:56.573Z,12.01
2023-03-31T10:59:42.931Z,12.04
2023-03-31T11:02:29.134Z,12.09
2023-03-31T11:05:22.593Z,12.17
2023-03-31T11:08:05.721Z,12.31
2023-03-31T11:11:09.336Z,12.43
2023-03-31T11:13:53.020Z,12.46
2023-03-31T11:16:28.321Z,12.41
2023-03-31T11:19:29.518Z,12.42
2023-03-31T11:22:02.043Z,12.50
2023-03-31T11:24:52.975Z,12.64
2023-03-31T11:27:23.695Z,12.80
2023-03-31T11:29:54.414Z,12.95
2023-03-31T11:32:48.695Z,13.09
2023-03-31T11:35:46.413Z,13.17
2023-03-31T11:38:39.921Z,13.10
2023-03-31T11:41:21.739Z,13.13
2023-03-31T11:43:51.930Z,13.27
2023-03-31T11:46:51.441Z,13.39
2023-03-31T11:49:23.091Z,13.38
2023-03-31T11:52:09.953Z,13.20
2023-03-31T11:54:44.623Z,13.06
2023-03-31T11:57:35.347Z,12.92
2023-03-31T12:00:21.244Z,12.73
2023-03-31T12:03:09.925Z,12.61
2023-03-31T12:05:46.287Z,12.59
2023-03-31T12:08:40.913Z,12.61
2023-03-31T12:11:14.641Z,12.63
2023-03-31T12:13:46.235Z,12.64
2023-03-31T12:16:24.311Z,12.65
2023-03-31T12:19:11.055Z,12.58
2023-03-31T12:21:39.379Z,12.48
2023-03-31T12:24:11.933Z,12.43
2023-03-31T12:26:43.013Z,12.32
2023-03-31T12:29:33.084Z,12.20
2023-03-31T12:32:25.696Z,12.11
2023-03-31T12:35:02.185Z,12.08
2023-03-31T12:37:57.196Z,12.06
2023-03-31T12:40:31.533Z,12.01
2023-03-31T12:43:40.932Z,11.99
2023-03-31T12:47:03.699Z,11.97
2023-03-31T12:50:17.275Z,11.92
2023-03-31T12:53:15.802Z,11.83
2023-03-31T12:55:52.134Z,11.77
2023-03-31T12:58:25.233Z,11.70
2023-03-31T13:01:08.384Z,11.64
2023-03-31T13:03:45.150Z,11.57
2023-03-31T13:06:28.460Z,11.50
2023-03-31T13:09:11.412Z,11.43
2023-03-31T13:11:47.953Z,11.40
2023-03-31T13:14:23.709Z,11.35
2023-03-31T13:17:12.492Z,11.32
2023-03-31T13:19:42.007Z,11.27
2023-03-31T13:22:35.048Z,11.26
2023-03-31T13:25:29.690Z,11.26
2023-03-31T13:27:59.297Z,11.25
2023-03-31T13:31:02.212Z,11.26
2023-03-31T13:33:51.529Z,11.28
2023-03-31T13:36:25.581Z,11.26
2023-03-31T13:39:11.079Z,11.20
2023-03-31T13:42:03.928Z,11.14
2023-03-31T13:44:51.502Z,11.09
2023-03-31T13:49:21.820Z,10.78
2023-03-31T13:52:01.980Z,10.96
2023-03-31T13:54:36.767Z,10.90
2023-03-31T13:57:51.696Z,10.84
2023-03-31T14:00:46.930Z,10.73
2023-03-31T14:03:23.073Z,10.63
2023-03-31T14:06:15.376Z,10.51
2023-03-31T14:08:58.186Z,10.39
2023-03-31T14:11:26.923Z,10.28
2023-03-31T14:14:06.585Z,10.20
2023-03-31T14:16:38.586Z,10.13
2023-03-31T14:19:44.757Z,10.08
2023-03-31T14:22:32.452Z,10.03
2023-03-31T14:25:24.785Z,10.05
2023-03-31T14:28:21.812Z,10.09
2023-03-31T14:31:20.568Z,9.92
2023-03-31T14:34:16.598Z,9.78
2023-03-31T14:37:13.844Z,9.68
2023-03-31T14:39:51.530Z,9.84
2023-03-31T14:42:20.174Z,9.70
2023-03-31T14:44:48.793Z,9.51
2023-03-31T14:47:29.228Z,9.37
2023-03-31T14:50:13.363Z,9.51
2023-03-31T14:52:55.770Z,9.50
2023-03-31T14:55:28.607Z,9.37
2023-03-31T14:58:03.890Z,9.30
2023-03-31T15:00:32.979Z,9.44
2023-03-31T15:03:20.877Z,9.28
2023-03-31T15:05:50.273Z,9.13
2023-03-31T15:08:20.759Z,9.20
2023-03-31T15:10:58.871Z,9.26
2023-03-31T15:13:40.941Z,9.09
2023-03-31T15:16:29.723Z,8.98
2023-03-31T15:19:07.760Z,9.14
2023-03-31T15:21:37.672Z,9.05
2023-03-31T15:24:06.071Z,8.95
2023-03-31T15:26:41.491Z,9.06
2023-03-31T15:29:34.791Z,8.99
2023-03-31T15:32:13.781Z,8.83
2023-03-31T15:34:43.457Z,8.93
2023-03-31T15:37:14.354Z,8.95
2023-03-31T15:39:45.319Z,8.84
2023-03-31T15:42:13.321Z,8.78
2023-03-31T15:44:58.285Z,8.93
2023-03-31T15:47:29.596Z,8.97
2023-03-31T15:50:04.519Z,8.83
2023-03-31T15:52:35.618Z,8.76
2023-03-31T15:55:23.881Z,8.90
2023-03-31T15:57:52.009Z,8.91
2023-03-31T16:00:43.310Z,8.77
2023-03-31T16:03:17.546Z,8.81
2023-03-31T16:05:55.820Z,8.93
2023-03-31T16:08:37.554Z,8.82
2023-03-31T16:11:08.704Z,8.77
2023-03-31T16:13:47.528Z,8.95
2023-03-31T16:16:17.759Z,8.92
2023-03-31T16:18:51.170Z,8.81
2023-03-31T16:21:25.097Z,8.83
2023-03-31T16:23:54.334Z,8.98
2023-03-31T16:26:28.936Z,8.96
2023-03-31T16:28:57.744Z,8.82
2023-03-31T16:31:31.197Z,8.83
2023-03-31T16:34:00.038Z,8.97
2023-03-31T16:36:28.114Z,8.95
2023-03-31T16:38:58.158Z,8.85
2023-03-31T16:41:33.397Z,8.88
2023-03-31T16:44:01.538Z,9.05
2023-03-31T16:46:29.854Z,8.97
2023-03-31T16:48:58.257Z,8.91
2023-03-31T16:51:26.586Z,9.04
2023-03-31T16:53:57.567Z,9.09
2023-03-31T16:56:27.409Z,8.97
2023-03-31T16:58:55.991Z,8.95
2023-03-31T17:01:23.884Z,9.08
2023-03-31T17:03:52.134Z,9.13
2023-03-31T17:06:20.238Z,9.03
2023-03-31T17:08:48.329Z,9.02
2023-03-31T17:11:17.989Z,9.16
2023-03-31T17:13:46.649Z,9.11
2023-03-31T17:16:19.316Z,9.03
2023-03-31T17:18:53.334Z,9.18
2023-03-31T17:21:24.802Z,9.13
2023-03-31T17:23:55.186Z,9.03
2023-03-31T17:26:24.240Z,9.18
2023-03-31T17:28:52.783Z,9.15
2023-03-31T17:31:21.609Z,9.04
2023-03-31T17:33:49.552Z,9.15
2023-03-31T17:36:22.329Z,9.19
2023-03-31T17:38:50.959Z,9.11
2023-03-31T17:41:18.955Z,9.13
2023-03-31T17:43:50.431Z,9.26
2023-03-31T17:46:19.119Z,9.18
2023-03-31T17:48:48.605Z,9.11
2023-03-31T17:51:19.805Z,9.22
2023-03-31T17:53:57.608Z,9.30
2023-03-31T17:56:28.619Z,9.19
2023-03-31T17:58:57.409Z,9.13
2023-03-31T18:01:25.688Z,9.28
2023-03-31T18:03:55.665Z,9.27
2023-03-31T18:06:27.714Z,9.15
2023-03-31T18:08:57.117Z,9.18
2023-03-31T18:11:30.453Z,9.23
2023-03-31T18:14:11.642Z,9.20
2023-03-31T18:16:40.440Z,9.11
2023-03-31T18:19:09.710Z,9.18
2023-03-31T18:21:38.723Z,9.24
2023-03-31T18:24:07.312Z,9.22
2023-03-31T18:26:35.767Z,9.14
2023-03-31T18:29:04.860Z,9.07
2023-03-31T18:31:33.477Z,9.21
2023-03-31T18:34:02.431Z,9.28
2023-03-31T18:36:32.471Z,9.20
2023-03-31T18:39:00.585Z,9.28
2023-03-31T18:41:32.280Z,9.36
2023-03-31T18:44:01.562Z,9.31
2023-03-31T18:46:29.631Z,9.22
2023-03-31T18:48:58.774Z,9.31
2023-03-31T18:51:26.831Z,9.35
2023-03-31T18:53:55.336Z,9.35
2023-03-31T18:56:23.982Z,9.30
2023-03-31T18:58:52.890Z,9.22
2023-03-31T19:01:21.127Z,9.29
2023-03-31T19:03:50.210Z,9.33
2023-03-31T19:06:22.495Z,9.31
2023-03-31T19:08:52.152Z,9.28
2023-03-31T19:11:20.329Z,9.38
2023-03-31T19:13:48.263Z,9.41
2023-03-31T19:16:41.909Z,9.42
2023-03-31T19:19:12.697Z,9.32
2023-03-31T19:21:41.796Z,9.35
2023-03-31T19:24:09.934Z,9.39
2023-03-31T19:26:42.048Z,9.38
2023-03-31T19:29:09.974Z,9.35
2023-03-31T19:31:45.164Z,9.33
2023-03-31T19:34:14.154Z,9.30
2023-03-31T19:36:42.795Z,9.21
2023-03-31T19:39:11.746Z,9.32
2023-03-31T19:41:39.825Z,9.37
2023-03-31T19:44:07.753Z,9.41
2023-03-31T19:46:36.205Z,9.41
2023-03-31T19:49:04.449Z,9.34
2023-03-31T19:51:32.802Z,9.38
2023-03-31T19:54:00.837Z,9.44
2023-03-31T19:56:33.320Z,9.48
2023-03-31T19:59:02.795Z,9.45
2023-03-31T20:01:31.979Z,9.36
2023-03-31T20:04:05.176Z,9.42
2023-03-31T20:06:34.112Z,9.43
2023-03-31T20:09:04.812Z,9.44
2023-03-31T20:11:34.543Z,9.45
2023-03-31T20:14:03.550Z,9.47
2023-03-31T20:16:31.747Z,9.46
2023-03-31T20:19:04.195Z,9.37
2023-03-31T20:21:36.465Z,9.43
2023-03-31T20:24:06.546Z,9.50
2023-03-31T20:26:36.340Z,9.51
2023-03-31T20:29:04.518Z,9.53
2023-03-31T20:31:40.086Z,9.54
2023-03-31T20:34:12.750Z,9.45
2023-03-31T20:36:41.957Z,9.41
2023-03-31T20:39:11.190Z,9.53
2023-03-31T20:41:40.204Z,9.56
2023-03-31T20:44:12.020Z,9.59
2023-03-31T20:46:42.503Z,9.59
2023-03-31T20:49:10.957Z,9.52
2023-03-31T20:51:39.029Z,9.52
2023-03-31T20:54:08.424Z,9.55
2023-03-31T20:56:39.603Z,9.56
2023-03-31T20:59:12.266Z,9.55
2023-03-31T21:01:42.447Z,9.54
2023-03-31T21:04:12.305Z,9.54
2023-03-31T21:06:41.995Z,9.54
2023-03-31T21:09:11.913Z,9.53
2023-03-31T21:11:40.833Z,9.56
2023-03-31T21:14:15.728Z,9.58
2023-03-31T21:16:43.931Z,9.61
2023-03-31T21:19:12.541Z,9.61
2023-03-31T21:21:41.625Z,9.61
2023-03-31T21:24:11.325Z,9.56
2023-03-31T21:26:41.755Z,9.52
2023-03-31T21:29:12.699Z,9.58
2023-03-31T21:31:42.138Z,9.57
2023-03-31T21:34:11.357Z,9.54
2023-03-31T21:36:39.461Z,9.44
2023-03-31T21:39:07.899Z,9.33
2023-03-31T21:41:39.963Z,9.37
2023-03-31T21:44:09.040Z,9.36
2023-03-31T21:46:37.809Z,9.31
2023-03-31T21:49:06.467Z,9.29
2023-03-31T21:51:34.390Z,9.25
2023-03-31T21:54:02.510Z,9.14
2023-03-31T21:56:31.980Z,9.14
2023-03-31T21:59:04.382Z,9.17
2023-03-31T22:01:32.588Z,9.18
2023-03-31T22:04:00.776Z,9.20
2023-03-31T22:06:29.434Z,9.20
2023-03-31T22:08:57.351Z,9.22
2023-03-31T22:11:29.733Z,9.24
2023-03-31T22:13:58.196Z,9.23
2023-03-31T22:16:26.179Z,9.24
2023-03-31T22:18:54.911Z,9.25
2023-03-31T22:21:24.503Z,9.24
2023-03-31T22:23:59.973Z,9.22
2023-03-31T22:26:29.218Z,9.17
2023-03-31T22:29:04.596Z,9.13
2023-03-31T22:31:32.978Z,9.08
2023-03-31T22:34:01.751Z,9.01
2023-03-31T22:36:30.378Z,8.97
2023-03-31T22:38:58.609Z,8.95
2023-03-31T22:41:26.463Z,8.93
2023-03-31T22:43:54.372Z,8.92
2023-03-31T22:46:22.357Z,8.90
2023-03-31T22:48:50.612Z,8.86
2023-03-31T22:51:19.216Z,8.87
2023-03-31T22:53:51.820Z,8.86
2023-03-31T22:56:21.154Z,8.86
2023-03-31T22:58:52.518Z,8.90
2023-03-31T23:01:21.134Z,8.89
2023-03-31T23:03:50.100Z,8.85
2023-03-31T23:06:18.227Z,8.85
2023-03-31T23:08:49.096Z,8.85
2023-03-31T23:11:18.891Z,8.84
2023-03-31T23:13:50.373Z,8.84
2023-03-31T23:16:23.485Z,8.84
2023-03-31T23:18:52.952Z,8.88
2023-03-31T23:21:24.301Z,8.88
2023-03-31T23:23:53.777Z,8.90
2023-03-31T23:26:22.987Z,8.89
2023-03-31T23:28:51.159Z,8.90
2023-03-31T23:31:21.295Z,8.99
2023-03-31T23:33:49.837Z,9.01
2023-03-31T23:36:18.493Z,9.03
2023-03-31T23:38:50.580Z,9.06
2023-03-31T23:41:18.963Z,9.08
2023-03-31T23:43:46.951Z,9.10
2023-03-31T23:46:15.376Z,9.12
2023-03-31T23:48:43.308Z,9.13
2023-03-31T23:51:15.469Z,9.13
2023-03-31T23:53:44.744Z,9.11
2023-03-31T23:56:17.184Z,9.05
2023-03-31T23:58:45.291Z,9.16
